createdAt,value
2023-07-27T00:00:06.597Z,16.10
2023-07-27T00:02:39.418Z,16.10
2023-07-27T00:05:14.221Z,16.20
2023-07-27T00:07:45.362Z,16.20
2023-07-27T00:10:16.579Z,16.20
2023-07-27T00:12:47.830Z,16.20
2023-07-27T00:15:21.702Z,16.20
2023-07-27T00:17:52.901Z,16.20
2023-07-27T00:20:24.069Z,16.30
2023-07-27T00:22:55.109Z,16.20
2023-07-27T00:25:26.231Z,16.30
2023-07-27T00:27:57.251Z,16.30
2023-07-27T00:30:31.001Z,16.30
2023-07-27T00:33:02.405Z,16.40
2023-07-27T00:35:33.551Z,16.40
2023-07-27T00:38:04.626Z,16.40
2023-07-27T00:40:36.045Z,16.50
2023-07-27T00:43:07.026Z,16.50
2023-07-27T00:45:43.591Z,16.50
2023-07-27T00:48:16.386Z,16.70
2023-07-27T00:50:48.282Z,16.60
2023-07-27T00:53:19.761Z,16.60
2023-07-27T00:55:50.943Z,16.50
2023-07-27T00:58:22.489Z,16.60
2023-07-27T01:00:56.261Z,16.60
2023-07-27T01:03:27.719Z,16.50
2023-07-27T01:05:59.095Z,16.60
2023-07-27T01:08:30.222Z,16.60
2023-07-27T01:11:09.954Z,16.60
2023-07-27T01:13:45.101Z,16.70
2023-07-27T01:16:23.507Z,16.70
2023-07-27T01:18:59.512Z,16.70
2023-07-27T01:21:36.153Z,16.70
2023-07-27T01:24:33.041Z,16.70
2023-07-27T01:27:21.900Z,16.70
2023-07-27T01:30:19.958Z,16.70
2023-07-27T01:32:59.694Z,16.70
2023-07-27T01:35:42.333Z,16.80
2023-07-27T01:38:15.269Z,16.80
2023-07-27T01:40:49.308Z,16.80
2023-07-27T01:43:21.161Z,16.70
2023-07-27T01:45:53.663Z,16.80
2023-07-27T01:48:29.911Z,16.80
2023-07-27T01:51:01.923Z,16.80
2023-07-27T01:53:33.867Z,16.90
2023-07-27T01:56:06.601Z,16.90
2023-07-27T01:58:39.056Z,16.90
2023-07-27T02:01:10.422Z,16.90
2023-07-27T02:03:44.822Z,17.10
2023-07-27T02:06:15.757Z,17.00
2023-07-27T02:08:46.693Z,16.90
2023-07-27T02:11:20.109Z,17.00
2023-07-27T02:13:58.412Z,17.00
2023-07-27T02:16:37.849Z,17.00
2023-07-27T02:19:14.009Z,17.60
2023-07-27T02:21:45.705Z,17.00
2023-07-27T02:24:17.609Z,17.00
2023-07-27T02:26:48.607Z,17.10
2023-07-27T02:29:20.447Z,17.10
2023-07-27T02:31:51.398Z,16.70
2023-07-27T02:34:24.913Z,17.10
2023-07-27T02:36:55.816Z,17.10
2023-07-27T02:39:26.878Z,17.10
2023-07-27T02:41:57.795Z,17.20
2023-07-27T02:44:28.687Z,17.00
2023-07-27T02:46:59.615Z,17.00
2023-07-27T02:49:33.135Z,17.00
2023-07-27T02:52:04.086Z,16.90
2023-07-27T02:54:35.033Z,17.00
2023-07-27T02:57:06.064Z,17.00
2023-07-27T02:59:37.029Z,17.00
2023-07-27T03:02:08.966Z,17.00
2023-07-27T03:04:42.893Z,17.00
2023-07-27T03:07:13.811Z,16.90
2023-07-27T03:09:44.794Z,16.90
2023-07-27T03:12:16.516Z,16.90
2023-07-27T03:14:47.429Z,17.10
2023-07-27T03:17:18.321Z,16.90
2023-07-27T03:19:51.957Z,16.80
2023-07-27T03:22:22.878Z,16.80
2023-07-27T03:24:53.841Z,16.80
2023-07-27T03:27:24.831Z,17.30
2023-07-27T03:29:55.721Z,16.70
2023-07-27T03:32:29.196Z,16.90
2023-07-27T03:35:02.658Z,16.70
2023-07-27T03:37:33.564Z,16.70
2023-07-27T03:40:04.461Z,16.70
2023-07-27T03:42:35.389Z,16.60
2023-07-27T03:45:06.945Z,16.60
2023-07-27T03:47:37.854Z,16.50
2023-07-27T03:50:12.381Z,16.50
2023-07-27T03:52:43.488Z,16.50
2023-07-27T03:55:14.597Z,16.40
2023-07-27T03:57:45.496Z,16.40
2023-07-27T04:00:17.231Z,16.30
2023-07-27T04:02:48.183Z,16.30
2023-07-27T04:05:22.044Z,16.30
2023-07-27T04:07:53.498Z,16.30
2023-07-27T04:10:25.986Z,16.20
2023-07-27T04:12:56.895Z,16.20
2023-07-27T04:15:27.846Z,16.20
2023-07-27T04:17:58.820Z,16.30
2023-07-27T04:20:32.382Z,16.20
2023-07-27T04:23:03.354Z,16.20
2023-07-27T04:25:34.319Z,16.10
2023-07-27T04:28:05.564Z,16.20
2023-07-27T04:30:36.512Z,16.00
2023-07-27T04:33:07.667Z,15.90
2023-07-27T04:35:44.225Z,15.90
2023-07-27T04:38:15.181Z,15.80
2023-07-27T04:40:46.326Z,15.90
2023-07-27T04:43:17.278Z,15.80
2023-07-27T04:45:48.904Z,15.80
2023-07-27T04:48:19.776Z,15.80
2023-07-27T04:50:55.472Z,15.80
2023-07-27T04:53:26.763Z,15.80
2023-07-27T04:55:57.674Z,15.70
2023-07-27T04:58:28.645Z,15.70
2023-07-27T05:01:00.639Z,15.70
2023-07-27T05:03:32.516Z,15.60
2023-07-27T05:06:06.080Z,15.50
2023-07-27T05:08:37.178Z,15.60
2023-07-27T05:11:09.916Z,15.60
2023-07-27T05:13:40.962Z,15.60
2023-07-27T05:16:12.218Z,15.60
2023-07-27T05:18:43.376Z,15.60
2023-07-27T05:21:16.904Z,15.60
2023-07-27T05:23:47.803Z,15.60
2023-07-27T05:26:18.846Z,15.60
2023-07-27T05:28:49.952Z,15.50
2023-07-27T05:31:20.927Z,15.40
2023-07-27T05:33:51.953Z,15.50
2023-07-27T05:36:25.438Z,15.40
2023-07-27T05:38:56.366Z,15.30
2023-07-27T05:41:27.280Z,15.30
2023-07-27T05:43:58.167Z,15.30
2023-07-27T05:46:29.102Z,15.30
2023-07-27T05:49:00.074Z,15.30
2023-07-27T05:51:33.594Z,15.30
2023-07-27T05:54:04.748Z,15.20
2023-07-27T05:56:36.021Z,15.10
2023-07-27T05:59:07.427Z,15.10
2023-07-27T06:01:38.385Z,15.00
2023-07-27T06:04:09.444Z,15.00
2023-07-27T06:06:46.910Z,15.00
2023-07-27T06:09:18.041Z,15.00
2023-07-27T06:11:48.999Z,15.00
2023-07-27T06:14:19.941Z,15.00
2023-07-27T06:16:50.894Z,15.10
2023-07-27T06:19:21.805Z,15.10
2023-07-27T06:21:55.308Z,15.20
2023-07-27T06:24:26.277Z,15.20
2023-07-27T06:26:57.289Z,15.30
2023-07-27T06:29:28.195Z,15.30
2023-07-27T06:31:59.105Z,15.20
2023-07-27T06:34:30.174Z,15.30
2023-07-27T06:37:03.636Z,15.30
2023-07-27T06:39:35.054Z,15.40
2023-07-27T06:42:06.153Z,15.40
2023-07-27T06:44:37.173Z,15.40
2023-07-27T06:47:08.312Z,15.50
2023-07-27T06:49:39.309Z,15.50
2023-07-27T06:52:13.139Z,15.50
2023-07-27T06:54:47.024Z,15.50
2023-07-27T06:57:18.261Z,15.50
2023-07-27T06:59:49.233Z,15.70
2023-07-27T07:02:20.328Z,15.60
2023-07-27T07:04:51.397Z,15.60
2023-07-27T07:07:24.995Z,15.60
2023-07-27T07:09:56.332Z,15.60
2023-07-27T07:12:36.283Z,15.80
2023-07-27T07:15:08.267Z,15.70
2023-07-27T07:17:51.681Z,15.80
2023-07-27T07:20:31.722Z,15.70
2023-07-27T07:23:05.306Z,15.80
2023-07-27T07:25:36.706Z,15.80
2023-07-27T07:28:08.011Z,15.90
2023-07-27T07:30:42.866Z,15.90
2023-07-27T07:33:13.999Z,16.00
2023-07-27T07:35:47.904Z,16.00
2023-07-27T07:38:21.390Z,16.00
2023-07-27T07:40:52.281Z,16.10
2023-07-27T07:43:23.181Z,16.10
2023-07-27T07:45:54.092Z,16.00
2023-07-27T07:48:25.095Z,16.00
2023-07-27T07:50:56.147Z,16.60
2023-07-27T07:53:35.506Z,16.20
2023-07-27T07:56:07.754Z,16.20
2023-07-27T07:58:38.755Z,16.20
2023-07-27T08:01:10.154Z,16.20
2023-07-27T08:03:41.435Z,16.20
2023-07-27T08:06:15.210Z,16.30
2023-07-27T08:08:48.970Z,16.40
2023-07-27T08:11:19.891Z,16.50
2023-07-27T08:13:53.702Z,16.50
2023-07-27T08:16:24.869Z,16.60
2023-07-27T08:18:55.816Z,16.60
2023-07-27T08:21:27.239Z,16.70
2023-07-27T08:24:00.845Z,16.70
2023-07-27T08:26:32.346Z,16.80
2023-07-27T08:29:03.472Z,16.80
2023-07-27T08:31:34.448Z,16.80
2023-07-27T08:34:05.373Z,16.90
2023-07-27T08:36:36.854Z,16.80
2023-07-27T08:39:12.142Z,16.90
2023-07-27T08:41:43.297Z,17.00
2023-07-27T08:44:16.935Z,16.90
2023-07-27T08:46:49.288Z,17.10
2023-07-27T08:49:21.606Z,17.20
2023-07-27T08:51:52.524Z,17.20
2023-07-27T08:54:26.122Z,17.20
2023-07-27T08:56:57.229Z,17.20
2023-07-27T08:59:28.502Z,17.30
2023-07-27T09:01:59.741Z,17.40
2023-07-27T09:04:31.002Z,17.50
2023-07-27T09:07:10.080Z,17.50
2023-07-27T09:09:43.729Z,17.60
2023-07-27T09:12:20.732Z,17.70
2023-07-27T09:14:51.946Z,17.70
2023-07-27T09:17:22.900Z,17.70
2023-07-27T09:19:54.916Z,17.90
2023-07-27T09:22:26.932Z,17.70
2023-07-27T09:25:02.705Z,17.70
2023-07-27T09:27:44.914Z,17.70
2023-07-27T09:30:19.782Z,17.70
2023-07-27T09:32:51.461Z,18.10
2023-07-27T09:35:23.934Z,17.70
2023-07-27T09:37:57.870Z,17.70
2023-07-27T09:40:31.467Z,17.60
2023-07-27T09:43:08.900Z,17.60
2023-07-27T09:45:40.602Z,17.50
2023-07-27T09:48:12.118Z,17.50
2023-07-27T09:50:45.430Z,17.50
2023-07-27T09:53:18.165Z,17.50
2023-07-27T09:55:52.090Z,17.50
2023-07-27T09:58:23.194Z,17.60
2023-07-27T10:00:54.182Z,17.70
2023-07-27T10:03:25.229Z,17.70
2023-07-27T10:05:56.527Z,17.80
2023-07-27T10:08:31.307Z,17.70
2023-07-27T10:11:05.603Z,17.70
2023-07-27T10:13:41.805Z,17.80
2023-07-27T10:16:15.250Z,17.80
2023-07-27T10:18:50.228Z,17.80
2023-07-27T10:21:26.137Z,17.90
2023-07-27T10:24:02.139Z,18.00
2023-07-27T10:26:54.118Z,18.10
2023-07-27T10:29:27.639Z,18.10
2023-07-27T10:32:06.639Z,18.30
2023-07-27T10:34:41.870Z,18.30
2023-07-27T10:37:15.396Z,18.30
2023-07-27T10:39:51.773Z,18.30
2023-07-27T10:42:27.098Z,18.30
2023-07-27T10:44:59.533Z,18.30
2023-07-27T10:47:38.634Z,18.40
2023-07-27T10:50:11.283Z,18.40
2023-07-27T10:52:42.260Z,18.60
2023-07-27T10:55:13.238Z,18.70
2023-07-27T10:57:47.542Z,18.80
2023-07-27T11:00:19.223Z,18.90
2023-07-27T11:02:51.514Z,18.90
2023-07-27T11:05:22.666Z,18.90
2023-07-27T11:07:53.634Z,19.00
2023-07-27T11:10:34.465Z,19.00
2023-07-27T11:13:08.029Z,18.80
2023-07-27T11:15:39.359Z,18.70
2023-07-27T11:18:11.504Z,18.80
2023-07-27T11:20:45.716Z,18.80
2023-07-27T11:23:16.808Z,18.70
2023-07-27T11:25:48.162Z,18.80
2023-07-27T11:28:22.678Z,18.80
2023-07-27T11:30:54.367Z,18.80
2023-07-27T11:33:30.971Z,18.70
2023-07-27T11:36:02.269Z,18.60
2023-07-27T11:38:33.316Z,18.60
2023-07-27T11:41:29.055Z,18.70
2023-07-27T11:44:00.410Z,18.70
2023-07-27T11:46:43.369Z,18.80
2023-07-27T11:49:14.424Z,18.90
2023-07-27T11:51:47.726Z,18.90
2023-07-27T11:54:26.135Z,18.90
2023-07-27T11:57:00.012Z,18.90
2023-07-27T11:59:35.362Z,18.90
2023-07-27T12:02:06.901Z,18.80
2023-07-27T12:04:38.594Z,18.70
2023-07-27T12:07:09.704Z,18.90
2023-07-27T12:09:41.192Z,18.80
2023-07-27T12:12:13.439Z,18.80
2023-07-27T12:14:46.963Z,18.90
2023-07-27T12:27:38.116Z,19.30
2023-07-27T12:32:47.117Z,19.30
2023-07-27T12:37:52.581Z,19.40
2023-07-27T12:40:55.607Z,19.30
2023-07-27T12:43:15.421Z,19.30
2023-07-27T12:45:49.168Z,19.50
2023-07-27T12:48:20.339Z,19.10
2023-07-27T12:50:51.514Z,19.20
2023-07-27T12:53:22.915Z,19.30
2023-07-27T12:55:54.669Z,19.50
2023-07-27T12:58:25.808Z,19.60
2023-07-27T13:01:01.959Z,19.60
2023-07-27T13:03:33.770Z,19.60
2023-07-27T13:06:05.548Z,19.60
2023-07-27T13:08:36.508Z,19.70
2023-07-27T13:11:07.426Z,19.80
2023-07-27T13:13:38.415Z,19.80
2023-07-27T13:16:14.897Z,19.90
2023-07-27T13:18:46.726Z,19.90
2023-07-27T13:21:18.793Z,19.90
2023-07-27T13:23:50.553Z,19.70
2023-07-27T13:26:21.828Z,19.60
2023-07-27T13:28:52.774Z,19.50
2023-07-27T13:31:27.972Z,19.50
2023-07-27T13:34:00.328Z,19.60
2023-07-27T13:36:33.944Z,19.60
2023-07-27T13:39:05.824Z,19.60
2023-07-27T13:41:37.075Z,19.60
2023-07-27T13:44:08.466Z,19.50
2023-07-27T13:46:45.031Z,19.60
2023-07-27T13:49:16.002Z,19.50
2023-07-27T13:51:46.973Z,19.50
2023-07-27T13:54:17.910Z,19.50
2023-07-27T13:56:48.871Z,19.60
2023-07-27T13:59:20.451Z,19.50
2023-07-27T14:01:54.202Z,19.70
2023-07-27T14:04:25.286Z,19.60
2023-07-27T14:06:56.251Z,19.60
2023-07-27T14:09:30.643Z,19.70
2023-07-27T14:12:01.860Z,19.60
2023-07-27T14:14:32.829Z,19.60
2023-07-27T14:17:08.170Z,19.60
2023-07-27T14:19:39.102Z,19.50
2023-07-27T14:22:11.242Z,19.50
2023-07-27T14:24:42.161Z,19.70
2023-07-27T14:27:13.134Z,19.50
2023-07-27T14:29:44.347Z,19.50
2023-07-27T14:32:17.873Z,19.50
2023-07-27T14:34:48.895Z,19.60
2023-07-27T14:37:19.912Z,19.60
2023-07-27T14:39:50.875Z,19.80
2023-07-27T14:42:22.306Z,19.60
2023-07-27T14:44:54.104Z,19.70
2023-07-27T14:47:28.432Z,19.50
2023-07-27T14:50:01.518Z,19.40
2023-07-27T14:52:32.706Z,19.40
2023-07-27T14:55:09.032Z,19.40
2023-07-27T14:57:40.205Z,19.40
2023-07-27T15:00:13.749Z,19.50
2023-07-27T15:03:04.847Z,19.60
2023-07-27T15:05:37.185Z,19.60
2023-07-27T15:08:08.668Z,19.60
2023-07-27T15:10:40.801Z,19.60
2023-07-27T15:13:12.825Z,19.60
2023-07-27T15:15:43.828Z,19.70
2023-07-27T15:18:17.333Z,19.70
2023-07-27T15:20:57.976Z,19.70
2023-07-27T15:23:30.976Z,19.70
2023-07-27T15:26:03.520Z,19.70
2023-07-27T15:28:35.929Z,19.80
2023-07-27T15:31:07.825Z,19.70
2023-07-27T15:33:41.424Z,19.70
2023-07-27T15:36:12.463Z,19.50
2023-07-27T15:38:44.974Z,19.50
2023-07-27T15:41:16.094Z,19.50
2023-07-27T15:43:47.031Z,19.40
2023-07-27T15:46:18.417Z,19.60
2023-07-27T15:48:52.006Z,19.50
2023-07-27T15:51:23.354Z,19.40
2023-07-27T15:53:54.379Z,19.30
2023-07-27T15:56:25.320Z,19.40
2023-07-27T15:58:57.088Z,19.30
2023-07-27T16:01:28.296Z,19.30
2023-07-27T16:04:01.882Z,19.40
2023-07-27T16:06:33.218Z,19.40
2023-07-27T16:09:04.360Z,19.40
2023-07-27T16:11:35.724Z,19.40
2023-07-27T16:14:06.731Z,19.40
2023-07-27T16:16:37.862Z,19.40
2023-07-27T16:19:11.430Z,19.40
2023-07-27T16:21:42.480Z,19.20
2023-07-27T16:24:13.380Z,19.30
2023-07-27T16:26:44.554Z,19.20
2023-07-27T16:29:15.515Z,19.10
2023-07-27T16:31:46.442Z,19.10
2023-07-27T16:34:20.132Z,19.10
2023-07-27T16:36:51.576Z,19.10
2023-07-27T16:39:22.665Z,19.20
2023-07-27T16:41:53.722Z,19.50
2023-07-27T16:44:24.746Z,19.20
2023-07-27T16:46:55.915Z,19.20
2023-07-27T16:49:29.760Z,19.10
2023-07-27T16:52:00.694Z,19.00
2023-07-27T16:54:31.778Z,19.00
2023-07-27T16:57:03.173Z,19.00
2023-07-27T16:59:34.113Z,19.00
2023-07-27T17:02:09.004Z,19.00
2023-07-27T17:04:43.135Z,19.00
2023-07-27T17:07:16.389Z,18.90
2023-07-27T17:09:51.035Z,18.90
2023-07-27T17:12:22.606Z,18.80
2023-07-27T17:14:53.779Z,18.80
2023-07-27T17:17:25.022Z,18.80
2023-07-27T17:19:59.090Z,18.80
2023-07-27T17:22:33.467Z,18.80
2023-07-27T17:25:06.088Z,18.80
2023-07-27T17:27:37.186Z,18.80
2023-07-27T17:30:10.184Z,19.10
2023-07-27T17:32:42.120Z,18.80
2023-07-27T17:35:16.164Z,18.70
2023-07-27T17:37:47.548Z,18.80
2023-07-27T17:40:21.786Z,18.60
2023-07-27T17:42:52.766Z,18.60
2023-07-27T17:45:24.601Z,18.60
2023-07-27T17:47:56.258Z,18.60
2023-07-27T17:50:33.037Z,18.70
2023-07-27T17:53:04.305Z,18.70
2023-07-27T17:55:39.233Z,18.80
2023-07-27T17:58:12.075Z,18.70
2023-07-27T18:00:46.135Z,18.70
2023-07-27T18:03:19.466Z,18.70
2023-07-27T18:05:53.462Z,18.70
2023-07-27T18:08:24.694Z,18.70
2023-07-27T18:10:58.874Z,18.70
2023-07-27T18:13:30.415Z,18.70
2023-07-27T18:16:01.551Z,18.70
2023-07-27T18:18:33.434Z,18.60
2023-07-27T18:21:12.257Z,18.60
2023-07-27T18:23:44.892Z,18.70
2023-07-27T18:26:19.927Z,18.60
2023-07-27T18:28:51.860Z,18.70
2023-07-27T18:31:23.273Z,18.70
2023-07-27T18:33:54.549Z,18.70
2023-07-27T18:36:28.231Z,18.80
2023-07-27T18:38:59.209Z,18.70
2023-07-27T18:41:30.587Z,18.80
2023-07-27T18:44:02.091Z,18.70
2023-07-27T18:46:33.948Z,18.70
2023-07-27T18:49:05.037Z,18.70
2023-07-27T18:51:38.752Z,18.70
2023-07-27T18:54:10.435Z,18.70
2023-07-27T18:56:41.615Z,18.70
2023-07-27T18:59:12.701Z,18.70
2023-07-27T19:01:45.932Z,18.80
2023-07-27T19:04:17.227Z,18.80
2023-07-27T19:06:50.913Z,18.80
2023-07-27T19:09:21.870Z,18.70
2023-07-27T19:11:53.600Z,18.70
2023-07-27T19:14:25.169Z,18.70
2023-07-27T19:16:56.438Z,18.60
2023-07-27T19:19:29.676Z,18.60
2023-07-27T19:22:03.839Z,18.60
2023-07-27T19:24:37.460Z,18.60
2023-07-27T19:27:08.851Z,18.60
2023-07-27T19:29:42.177Z,18.60
2023-07-27T19:32:15.162Z,18.60
2023-07-27T19:34:46.372Z,18.60
2023-07-27T19:37:20.175Z,18.60
2023-07-27T19:39:54.108Z,18.60
2023-07-27T19:42:25.405Z,18.60
2023-07-27T19:44:57.276Z,18.60
2023-07-27T19:47:28.292Z,18.70
2023-07-27T19:50:05.247Z,18.70
2023-07-27T19:52:40.195Z,18.60
2023-07-27T19:55:12.400Z,18.50
2023-07-27T19:57:43.388Z,18.50
2023-07-27T20:00:17.473Z,18.50
2023-07-27T20:02:49.748Z,18.50
2023-07-27T20:05:20.887Z,18.30
2023-07-27T20:07:54.519Z,18.50
2023-07-27T20:10:26.126Z,18.50
2023-07-27T20:12:57.203Z,18.50
2023-07-27T20:15:30.986Z,18.50
2023-07-27T20:18:02.194Z,18.50
2023-07-27T20:20:33.178Z,18.50
2023-07-27T20:23:06.966Z,18.40
2023-07-27T20:25:38.141Z,18.50
2023-07-27T20:28:09.203Z,18.50
2023-07-27T20:30:40.184Z,18.50
2023-07-27T20:33:11.244Z,18.50
2023-07-27T20:35:42.354Z,18.40
2023-07-27T20:38:16.146Z,18.50
2023-07-27T20:40:50.469Z,18.40
2023-07-27T20:43:21.378Z,18.50
2023-07-27T20:46:01.756Z,18.40
2023-07-27T20:52:34.561Z,18.50
2023-07-27T20:55:08.994Z,18.40
2023-07-27T20:57:40.018Z,18.30
2023-07-27T21:00:12.426Z,18.30
2023-07-27T21:02:48.175Z,18.30
2023-07-27T21:05:19.529Z,18.30
2023-07-27T21:07:50.882Z,18.40
2023-07-27T21:10:24.546Z,18.40
2023-07-27T21:12:55.655Z,18.40
2023-07-27T21:15:26.665Z,18.40
2023-07-27T21:17:57.708Z,18.40
2023-07-27T21:20:28.705Z,18.40
2023-07-27T21:22:59.763Z,18.40
2023-07-27T21:25:33.529Z,18.40
2023-07-27T21:28:04.527Z,18.40
2023-07-27T21:30:39.822Z,18.40
2023-07-27T21:33:26.209Z,18.40
2023-07-27T21:35:59.242Z,18.40
2023-07-27T21:38:33.736Z,18.40
2023-07-27T21:41:07.458Z,18.40
2023-07-27T21:43:39.174Z,18.40
2023-07-27T21:46:10.572Z,18.30
2023-07-27T21:48:43.164Z,18.40
2023-07-27T21:51:14.477Z,18.40
2023-07-27T21:53:45.693Z,18.40
2023-07-27T21:56:19.417Z,18.40
2023-07-27T21:58:50.492Z,18.40
2023-07-27T22:01:21.716Z,18.40
2023-07-27T22:03:53.164Z,18.40
2023-07-27T22:06:24.195Z,18.30
2023-07-27T22:08:56.335Z,18.30
2023-07-27T22:11:30.180Z,18.30
2023-07-27T22:14:01.515Z,18.30
2023-07-27T22:16:33.142Z,18.30
2023-07-27T22:19:04.525Z,18.30
2023-07-27T22:21:35.668Z,18.20
2023-07-27T22:24:07.481Z,18.30
2023-07-27T22:26:41.333Z,18.30
2023-07-27T22:29:12.614Z,18.30
2023-07-27T22:31:43.826Z,18.30
2023-07-27T22:34:15.028Z,18.30
2023-07-27T22:36:46.132Z,18.30
2023-07-27T22:39:18.672Z,18.30
2023-07-27T22:41:54.721Z,18.30
2023-07-27T22:44:26.127Z,18.30
2023-07-27T22:46:57.341Z,18.40
2023-07-27T22:49:28.775Z,18.30
2023-07-27T22:51:59.866Z,18.40
2023-07-27T22:54:30.944Z,18.40
2023-07-27T22:57:04.938Z,18.40
2023-07-27T22:59:35.967Z,18.40
2023-07-27T23:02:07.832Z,18.40
2023-07-27T23:04:39.067Z,18.40
2023-07-27T23:07:10.293Z,18.40
2023-07-27T23:09:41.277Z,18.30
2023-07-27T23:12:15.405Z,18.30
2023-07-27T23:14:46.607Z,18.30
2023-07-27T23:17:17.700Z,18.20
2023-07-27T23:19:48.970Z,18.30
2023-07-27T23:22:21.367Z,18.30
2023-07-27T23:24:52.499Z,18.20
2023-07-27T23:27:28.136Z,18.20
2023-07-27T23:29:59.135Z,18.30
2023-07-27T23:32:30.246Z,18.20
2023-07-27T23:35:01.342Z,18.10
2023-07-27T23:37:32.405Z,18.20
2023-07-27T23:40:04.032Z,18.20
2023-07-27T23:42:42.134Z,18.20
2023-07-27T23:45:13.291Z,18.10
2023-07-27T23:47:44.263Z,18.30
2023-07-27T23:50:15.203Z,18.10
2023-07-27T23:52:46.134Z,18.00
2023-07-27T23:55:17.066Z,18.10
2023-07-27T23:57:50.578Z,18.10
